sensor_id;sensor_type;location;lat;lon;timestamp;P1;durP1;ratioP1;P2;durP2;ratioP2
76599;SDS011;65489;52.048;6.090;2023-05-01T00:01:17;0.65;;;0.40;;
76599;SDS011;65489;52.048;6.090;2023-05-01T00:03:42;0.73;;;0.30;;
76599;SDS011;65489;52.048;6.090;2023-05-01T00:06:08;1.38;;;0.45;;
76599;SDS011;65489;52.048;6.090;2023-05-01T00:08:34;0.63;;;0.45;;
76599;SDS011;65489;52.048;6.090;2023-05-01T00:11:03;1.25;;;0.30;;
76599;SDS011;65489;52.048;6.090;2023-05-01T00:13:29;0.40;;;0.32;;
76599;SDS011;65489;52.048;6.090;2023-05-01T00:15:55;0.50;;;0.40;;
76599;SDS011;65489;52.048;6.090;2023-05-01T00:18:20;0.50;;;0.50;;
76599;SDS011;65489;52.048;6.090;2023-05-01T00:20:46;0.80;;;0.40;;
76599;SDS011;65489;52.048;6.090;2023-05-01T00:23:11;1.58;;;0.50;;
76599;SDS011;65489;52.048;6.090;2023-05-01T00:25:37;1.05;;;0.50;;
76599;SDS011;65489;52.048;6.090;2023-05-01T00:28:03;0.63;;;0.50;;
76599;SDS011;65489;52.048;6.090;2023-05-01T00:30:31;1.77;;;0.50;;
76599;SDS011;65489;52.048;6.090;2023-05-01T00:32:57;0.40;;;0.30;;
76599;SDS011;65489;52.048;6.090;2023-05-01T00:35:23;0.75;;;0.50;;
76599;SDS011;65489;52.048;6.090;2023-05-01T00:37:49;0.75;;;0.40;;
76599;SDS011;65489;52.048;6.090;2023-05-01T00:40:14;0.65;;;0.47;;
76599;SDS011;65489;52.048;6.090;2023-05-01T00:42:40;0.43;;;0.40;;
76599;SDS011;65489;52.048;6.090;2023-05-01T00:45:06;0.73;;;0.40;;
76599;SDS011;65489;52.048;6.090;2023-05-01T00:47:34;1.20;;;0.43;;
76599;SDS011;65489;52.048;6.090;2023-05-01T00:50:00;1.08;;;0.50;;
76599;SDS011;65489;52.048;6.090;2023-05-01T00:52:25;0.60;;;0.40;;
76599;SDS011;65489;52.048;6.090;2023-05-01T00:54:50;1.60;;;0.50;;
76599;SDS011;65489;52.048;6.090;2023-05-01T00:57:18;0.85;;;0.40;;
76599;SDS011;65489;52.048;6.090;2023-05-01T00:59:47;0.80;;;0.57;;
76599;SDS011;65489;52.048;6.090;2023-05-01T01:02:13;0.80;;;0.50;;
76599;SDS011;65489;52.048;6.090;2023-05-01T01:04:43;0.73;;;0.40;;
76599;SDS011;65489;52.048;6.090;2023-05-01T01:07:10;0.77;;;0.50;;
76599;SDS011;65489;52.048;6.090;2023-05-01T01:15:24;0.50;;;0.47;;
76599;SDS011;65489;52.048;6.090;2023-05-01T01:18:15;0.68;;;0.50;;
76599;SDS011;65489;52.048;6.090;2023-05-01T01:20:45;0.70;;;0.40;;
76599;SDS011;65489;52.048;6.090;2023-05-01T01:29:20;0.52;;;0.40;;
76599;SDS011;65489;52.048;6.090;2023-05-01T01:37:07;0.80;;;0.60;;
76599;SDS011;65489;52.048;6.090;2023-05-01T01:42:44;1.13;;;0.40;;
76599;SDS011;65489;52.048;6.090;2023-05-01T01:45:22;0.47;;;0.40;;
76599;SDS011;65489;52.048;6.090;2023-05-01T01:47:53;0.65;;;0.55;;
76599;SDS011;65489;52.048;6.090;2023-05-01T01:50:19;0.70;;;0.50;;
76599;SDS011;65489;52.048;6.090;2023-05-01T01:52:46;0.60;;;0.45;;
76599;SDS011;65489;52.048;6.090;2023-05-01T01:55:14;2.47;;;0.50;;
76599;SDS011;65489;52.048;6.090;2023-05-01T01:57:40;0.98;;;0.55;;
76599;SDS011;65489;52.048;6.090;2023-05-01T02:00:09;0.50;;;0.40;;
76599;SDS011;65489;52.048;6.090;2023-05-01T02:02:44;0.65;;;0.50;;
76599;SDS011;65489;52.048;6.090;2023-05-01T02:05:12;0.75;;;0.47;;
76599;SDS011;65489;52.048;6.090;2023-05-01T02:07:39;0.93;;;0.50;;
76599;SDS011;65489;52.048;6.090;2023-05-01T02:10:07;0.45;;;0.40;;
76599;SDS011;65489;52.048;6.090;2023-05-01T02:12:34;0.80;;;0.55;;
76599;SDS011;65489;52.048;6.090;2023-05-01T02:15:00;1.13;;;0.60;;
76599;SDS011;65489;52.048;6.090;2023-05-01T02:17:26;0.77;;;0.52;;
76599;SDS011;65489;52.048;6.090;2023-05-01T02:19:52;0.63;;;0.52;;
76599;SDS011;65489;52.048;6.090;2023-05-01T02:22:22;1.20;;;0.60;;
76599;SDS011;65489;52.048;6.090;2023-05-01T02:24:52;0.90;;;0.43;;
76599;SDS011;65489;52.048;6.090;2023-05-01T02:27:29;0.90;;;0.70;;
76599;SDS011;65489;52.048;6.090;2023-05-01T02:29:56;1.00;;;0.63;;
76599;SDS011;65489;52.048;6.090;2023-05-01T02:32:22;0.55;;;0.50;;
76599;SDS011;65489;52.048;6.090;2023-05-01T02:34:48;1.25;;;0.52;;
76599;SDS011;65489;52.048;6.090;2023-05-01T02:37:14;1.27;;;0.50;;
76599;SDS011;65489;52.048;6.090;2023-05-01T02:39:41;0.98;;;0.60;;
76599;SDS011;65489;52.048;6.090;2023-05-01T02:42:07;1.45;;;0.70;;
76599;SDS011;65489;52.048;6.090;2023-05-01T02:44:38;0.85;;;0.50;;
76599;SDS011;65489;52.048;6.090;2023-05-01T02:47:07;0.80;;;0.60;;
76599;SDS011;65489;52.048;6.090;2023-05-01T02:49:34;0.82;;;0.57;;
76599;SDS011;65489;52.048;6.090;2023-05-01T02:52:00;0.95;;;0.60;;
76599;SDS011;65489;52.048;6.090;2023-05-01T02:54:27;0.70;;;0.50;;
76599;SDS011;65489;52.048;6.090;2023-05-01T02:56:53;1.13;;;0.50;;
76599;SDS011;65489;52.048;6.090;2023-05-01T02:59:19;0.70;;;0.45;;
76599;SDS011;65489;52.048;6.090;2023-05-01T03:01:44;1.17;;;0.43;;
76599;SDS011;65489;52.048;6.090;2023-05-01T03:04:10;0.70;;;0.50;;
76599;SDS011;65489;52.048;6.090;2023-05-01T03:06:35;2.53;;;0.70;;
76599;SDS011;65489;52.048;6.090;2023-05-01T03:09:01;0.60;;;0.50;;
76599;SDS011;65489;52.048;6.090;2023-05-01T03:11:27;1.40;;;0.60;;
76599;SDS011;65489;52.048;6.090;2023-05-01T03:13:52;0.70;;;0.45;;
76599;SDS011;65489;52.048;6.090;2023-05-01T03:16:17;0.88;;;0.60;;
76599;SDS011;65489;52.048;6.090;2023-05-01T03:18:43;1.10;;;0.55;;
76599;SDS011;65489;52.048;6.090;2023-05-01T03:21:08;0.50;;;0.40;;
76599;SDS011;65489;52.048;6.090;2023-05-01T03:23:35;0.60;;;0.50;;
76599;SDS011;65489;52.048;6.090;2023-05-01T03:26:02;1.38;;;0.70;;
76599;SDS011;65489;52.048;6.090;2023-05-01T03:28:27;1.48;;;0.65;;
76599;SDS011;65489;52.048;6.090;2023-05-01T03:30:53;2.05;;;0.60;;
76599;SDS011;65489;52.048;6.090;2023-05-01T03:33:19;0.80;;;0.60;;
76599;SDS011;65489;52.048;6.090;2023-05-01T03:35:44;0.95;;;0.68;;
76599;SDS011;65489;52.048;6.090;2023-05-01T03:38:10;1.25;;;0.60;;
76599;SDS011;65489;52.048;6.090;2023-05-01T03:40:54;1.45;;;0.70;;
76599;SDS011;65489;52.048;6.090;2023-05-01T03:43:38;0.60;;;0.50;;
76599;SDS011;65489;52.048;6.090;2023-05-01T03:46:09;0.93;;;0.52;;
76599;SDS011;65489;52.048;6.090;2023-05-01T03:48:34;1.08;;;0.70;;
76599;SDS011;65489;52.048;6.090;2023-05-01T03:51:01;1.20;;;0.70;;
76599;SDS011;65489;52.048;6.090;2023-05-01T03:53:27;0.60;;;0.50;;
76599;SDS011;65489;52.048;6.090;2023-05-01T03:55:52;1.00;;;0.55;;
76599;SDS011;65489;52.048;6.090;2023-05-01T03:58:18;1.75;;;0.60;;
76599;SDS011;65489;52.048;6.090;2023-05-01T04:00:45;1.05;;;0.60;;
76599;SDS011;65489;52.048;6.090;2023-05-01T04:03:11;0.70;;;0.60;;
76599;SDS011;65489;52.048;6.090;2023-05-01T04:05:38;0.63;;;0.50;;
76599;SDS011;65489;52.048;6.090;2023-05-01T04:08:04;0.77;;;0.60;;
76599;SDS011;65489;52.048;6.090;2023-05-01T04:10:30;1.00;;;0.63;;
76599;SDS011;65489;52.048;6.090;2023-05-01T04:13:00;2.00;;;0.57;;
76599;SDS011;65489;52.048;6.090;2023-05-01T04:15:26;1.50;;;0.60;;
76599;SDS011;65489;52.048;6.090;2023-05-01T04:17:51;0.52;;;0.50;;
76599;SDS011;65489;52.048;6.090;2023-05-01T04:20:18;1.58;;;0.70;;
76599;SDS011;65489;52.048;6.090;2023-05-01T04:22:44;1.08;;;0.55;;
76599;SDS011;65489;52.048;6.090;2023-05-01T04:25:10;1.58;;;0.70;;
76599;SDS011;65489;52.048;6.090;2023-05-01T04:27:36;1.20;;;0.90;;
76599;SDS011;65489;52.048;6.090;2023-05-01T04:30:01;0.82;;;0.70;;
76599;SDS011;65489;52.048;6.090;2023-05-01T04:32:32;1.42;;;0.47;;
76599;SDS011;65489;52.048;6.090;2023-05-01T04:34:57;1.15;;;0.68;;
76599;SDS011;65489;52.048;6.090;2023-05-01T04:37:24;0.90;;;0.75;;
76599;SDS011;65489;52.048;6.090;2023-05-01T04:39:49;1.80;;;0.50;;
76599;SDS011;65489;52.048;6.090;2023-05-01T04:42:16;1.20;;;0.63;;
76599;SDS011;65489;52.048;6.090;2023-05-01T04:44:42;1.55;;;0.70;;
76599;SDS011;65489;52.048;6.090;2023-05-01T04:47:10;1.15;;;0.60;;
76599;SDS011;65489;52.048;6.090;2023-05-01T04:49:36;0.85;;;0.60;;
76599;SDS011;65489;52.048;6.090;2023-05-01T04:52:01;2.03;;;0.80;;
76599;SDS011;65489;52.048;6.090;2023-05-01T04:54:37;0.98;;;0.57;;
76599;SDS011;65489;52.048;6.090;2023-05-01T04:57:03;1.48;;;0.55;;
76599;SDS011;65489;52.048;6.090;2023-05-01T04:59:28;2.15;;;0.70;;
76599;SDS011;65489;52.048;6.090;2023-05-01T05:01:54;0.80;;;0.60;;
76599;SDS011;65489;52.048;6.090;2023-05-01T05:04:21;0.73;;;0.55;;
76599;SDS011;65489;52.048;6.090;2023-05-01T05:06:46;1.67;;;0.75;;
76599;SDS011;65489;52.048;6.090;2023-05-01T05:09:17;0.85;;;0.60;;
76599;SDS011;65489;52.048;6.090;2023-05-01T05:11:43;1.95;;;0.65;;
76599;SDS011;65489;52.048;6.090;2023-05-01T05:14:17;0.90;;;0.60;;
76599;SDS011;65489;52.048;6.090;2023-05-01T05:16:42;1.27;;;0.70;;
76599;SDS011;65489;52.048;6.090;2023-05-01T05:19:07;1.52;;;0.52;;
76599;SDS011;65489;52.048;6.090;2023-05-01T05:21:36;0.68;;;0.60;;
76599;SDS011;65489;52.048;6.090;2023-05-01T05:24:02;1.13;;;0.70;;
76599;SDS011;65489;52.048;6.090;2023-05-01T05:26:29;1.52;;;0.80;;
76599;SDS011;65489;52.048;6.090;2023-05-01T05:28:59;0.90;;;0.63;;
76599;SDS011;65489;52.048;6.090;2023-05-01T05:31:25;0.80;;;0.60;;
76599;SDS011;65489;52.048;6.090;2023-05-01T05:33:51;1.10;;;0.60;;
76599;SDS011;65489;52.048;6.090;2023-05-01T05:36:16;0.70;;;0.60;;
76599;SDS011;65489;52.048;6.090;2023-05-01T05:38:42;0.60;;;0.60;;
76599;SDS011;65489;52.048;6.090;2023-05-01T05:41:12;0.90;;;0.60;;
76599;SDS011;65489;52.048;6.090;2023-05-01T05:43:38;1.50;;;0.60;;
76599;SDS011;65489;52.048;6.090;2023-05-01T05:46:05;0.70;;;0.65;;
76599;SDS011;65489;52.048;6.090;2023-05-01T05:48:33;1.38;;;0.73;;
76599;SDS011;65489;52.048;6.090;2023-05-01T05:50:59;0.70;;;0.60;;
76599;SDS011;65489;52.048;6.090;2023-05-01T05:53:24;0.70;;;0.65;;
76599;SDS011;65489;52.048;6.090;2023-05-01T05:55:50;1.10;;;0.70;;
76599;SDS011;65489;52.048;6.090;2023-05-01T05:58:15;1.52;;;0.63;;
76599;SDS011;65489;52.048;6.090;2023-05-01T06:00:45;0.82;;;0.70;;
76599;SDS011;65489;52.048;6.090;2023-05-01T06:03:12;0.90;;;0.60;;
76599;SDS011;65489;52.048;6.090;2023-05-01T06:05:38;1.00;;;0.60;;
76599;SDS011;65489;52.048;6.090;2023-05-01T06:08:03;1.48;;;0.73;;
76599;SDS011;65489;52.048;6.090;2023-05-01T06:10:29;1.20;;;0.75;;
76599;SDS011;65489;52.048;6.090;2023-05-01T06:12:55;1.00;;;0.63;;
76599;SDS011;65489;52.048;6.090;2023-05-01T06:15:20;0.93;;;0.70;;
76599;SDS011;65489;52.048;6.090;2023-05-01T06:17:51;1.17;;;0.70;;
76599;SDS011;65489;52.048;6.090;2023-05-01T06:20:17;1.05;;;0.80;;
76599;SDS011;65489;52.048;6.090;2023-05-01T06:22:43;1.05;;;0.70;;
76599;SDS011;65489;52.048;6.090;2023-05-01T06:25:15;1.10;;;0.70;;
76599;SDS011;65489;52.048;6.090;2023-05-01T06:27:41;1.45;;;0.60;;
76599;SDS011;65489;52.048;6.090;2023-05-01T06:30:07;1.05;;;0.80;;
76599;SDS011;65489;52.048;6.090;2023-05-01T06:32:35;1.08;;;0.90;;
76599;SDS011;65489;52.048;6.090;2023-05-01T06:35:01;2.28;;;0.70;;
76599;SDS011;65489;52.048;6.090;2023-05-01T06:37:27;1.73;;;0.80;;
76599;SDS011;65489;52.048;6.090;2023-05-01T06:39:53;1.77;;;0.75;;
76599;SDS011;65489;52.048;6.090;2023-05-01T06:42:19;3.10;;;0.80;;
76599;SDS011;65489;52.048;6.090;2023-05-01T06:44:45;0.70;;;0.60;;
76599;SDS011;65489;52.048;6.090;2023-05-01T06:47:11;2.05;;;0.73;;
76599;SDS011;65489;52.048;6.090;2023-05-01T06:49:38;1.55;;;1.10;;
76599;SDS011;65489;52.048;6.090;2023-05-01T06:52:05;2.33;;;0.90;;
76599;SDS011;65489;52.048;6.090;2023-05-01T06:54:31;1.95;;;1.05;;
76599;SDS011;65489;52.048;6.090;2023-05-01T06:56:57;1.30;;;0.90;;
76599;SDS011;65489;52.048;6.090;2023-05-01T06:59:22;1.45;;;0.90;;
76599;SDS011;65489;52.048;6.090;2023-05-01T07:01:49;0.90;;;0.77;;
76599;SDS011;65489;52.048;6.090;2023-05-01T07:04:14;1.65;;;0.90;;
76599;SDS011;65489;52.048;6.090;2023-05-01T07:06:40;1.15;;;0.90;;
76599;SDS011;65489;52.048;6.090;2023-05-01T07:09:05;1.00;;;0.85;;
76599;SDS011;65489;52.048;6.090;2023-05-01T07:11:31;1.13;;;0.98;;
76599;SDS011;65489;52.048;6.090;2023-05-01T07:13:57;1.63;;;0.80;;
76599;SDS011;65489;52.048;6.090;2023-05-01T07:16:23;1.10;;;0.73;;
76599;SDS011;65489;52.048;6.090;2023-05-01T07:18:48;1.30;;;0.98;;
76599;SDS011;65489;52.048;6.090;2023-05-01T07:21:14;2.35;;;0.85;;
76599;SDS011;65489;52.048;6.090;2023-05-01T07:23:39;1.98;;;0.80;;
76599;SDS011;65489;52.048;6.090;2023-05-01T07:26:05;2.42;;;0.80;;
76599;SDS011;65489;52.048;6.090;2023-05-01T07:28:30;1.67;;;0.82;;
76599;SDS011;65489;52.048;6.090;2023-05-01T07:30:56;2.47;;;0.90;;
76599;SDS011;65489;52.048;6.090;2023-05-01T07:33:22;5.00;;;0.88;;
76599;SDS011;65489;52.048;6.090;2023-05-01T07:35:49;3.03;;;1.30;;
76599;SDS011;65489;52.048;6.090;2023-05-01T07:38:15;5.63;;;1.48;;
76599;SDS011;65489;52.048;6.090;2023-05-01T07:40:41;6.72;;;1.55;;
76599;SDS011;65489;52.048;6.090;2023-05-01T07:43:06;6.80;;;1.88;;
76599;SDS011;65489;52.048;6.090;2023-05-01T07:45:35;6.90;;;1.95;;
76599;SDS011;65489;52.048;6.090;2023-05-01T07:48:00;4.22;;;1.95;;
76599;SDS011;65489;52.048;6.090;2023-05-01T07:50:26;4.50;;;1.85;;
76599;SDS011;65489;52.048;6.090;2023-05-01T07:52:51;4.65;;;1.90;;
76599;SDS011;65489;52.048;6.090;2023-05-01T07:55:17;5.28;;;1.88;;
76599;SDS011;65489;52.048;6.090;2023-05-01T07:57:43;4.03;;;1.60;;
76599;SDS011;65489;52.048;6.090;2023-05-01T08:00:08;4.93;;;1.90;;
76599;SDS011;65489;52.048;6.090;2023-05-01T08:02:40;4.53;;;1.75;;
76599;SDS011;65489;52.048;6.090;2023-05-01T08:05:06;3.30;;;1.70;;
76599;SDS011;65489;52.048;6.090;2023-05-01T08:07:31;3.75;;;1.80;;
76599;SDS011;65489;52.048;6.090;2023-05-01T08:09:57;4.47;;;1.45;;
76599;SDS011;65489;52.048;6.090;2023-05-01T08:12:24;4.03;;;1.73;;
76599;SDS011;65489;52.048;6.090;2023-05-01T08:14:50;4.07;;;1.70;;
76599;SDS011;65489;52.048;6.090;2023-05-01T08:17:15;3.10;;;1.80;;
76599;SDS011;65489;52.048;6.090;2023-05-01T08:19:41;3.15;;;1.55;;
76599;SDS011;65489;52.048;6.090;2023-05-01T08:22:06;2.20;;;1.63;;
76599;SDS011;65489;52.048;6.090;2023-05-01T08:24:32;3.38;;;1.70;;
76599;SDS011;65489;52.048;6.090;2023-05-01T08:26:57;4.22;;;1.80;;
76599;SDS011;65489;52.048;6.090;2023-05-01T08:29:22;4.20;;;1.70;;
76599;SDS011;65489;52.048;6.090;2023-05-01T08:31:48;3.05;;;1.60;;
76599;SDS011;65489;52.048;6.090;2023-05-01T08:34:13;2.47;;;1.80;;
76599;SDS011;65489;52.048;6.090;2023-05-01T08:36:39;2.35;;;1.45;;
76599;SDS011;65489;52.048;6.090;2023-05-01T08:39:04;2.10;;;1.58;;
76599;SDS011;65489;52.048;6.090;2023-05-01T08:41:30;3.35;;;1.48;;
76599;SDS011;65489;52.048;6.090;2023-05-01T08:43:56;2.50;;;1.55;;
76599;SDS011;65489;52.048;6.090;2023-05-01T08:49:30;3.63;;;1.48;;
76599;SDS011;65489;52.048;6.090;2023-05-01T08:51:57;4.40;;;1.60;;
76599;SDS011;65489;52.048;6.090;2023-05-01T08:54:23;2.70;;;1.33;;
76599;SDS011;65489;52.048;6.090;2023-05-01T08:56:51;3.42;;;1.40;;
76599;SDS011;65489;52.048;6.090;2023-05-01T08:59:17;2.53;;;1.33;;
76599;SDS011;65489;52.048;6.090;2023-05-01T09:01:43;2.13;;;1.40;;
76599;SDS011;65489;52.048;6.090;2023-05-01T09:04:11;3.10;;;1.20;;
76599;SDS011;65489;52.048;6.090;2023-05-01T09:06:37;3.47;;;1.65;;
76599;SDS011;65489;52.048;6.090;2023-05-01T09:09:02;1.80;;;1.23;;
76599;SDS011;65489;52.048;6.090;2023-05-01T09:11:28;3.10;;;1.60;;
76599;SDS011;65489;52.048;6.090;2023-05-01T09:13:54;1.98;;;1.42;;
76599;SDS011;65489;52.048;6.090;2023-05-01T09:16:21;2.70;;;1.50;;
76599;SDS011;65489;52.048;6.090;2023-05-01T09:18:47;3.92;;;1.55;;
76599;SDS011;65489;52.048;6.090;2023-05-01T09:21:12;2.17;;;1.20;;
76599;SDS011;65489;52.048;6.090;2023-05-01T09:23:38;2.70;;;1.13;;
76599;SDS011;65489;52.048;6.090;2023-05-01T09:26:05;3.38;;;1.35;;
76599;SDS011;65489;52.048;6.090;2023-05-01T09:28:44;3.22;;;1.40;;
76599;SDS011;65489;52.048;6.090;2023-05-01T09:31:26;3.58;;;1.75;;
76599;SDS011;65489;52.048;6.090;2023-05-01T09:33:56;2.92;;;1.55;;
76599;SDS011;65489;52.048;6.090;2023-05-01T09:36:35;3.17;;;1.75;;
76599;SDS011;65489;52.048;6.090;2023-05-01T09:39:02;1.88;;;1.25;;
76599;SDS011;65489;52.048;6.090;2023-05-01T09:41:31;1.90;;;1.13;;
76599;SDS011;65489;52.048;6.090;2023-05-01T09:43:57;1.33;;;1.20;;
76599;SDS011;65489;52.048;6.090;2023-05-01T09:46:24;2.88;;;1.80;;
76599;SDS011;65489;52.048;6.090;2023-05-01T09:49:00;1.60;;;1.15;;
76599;SDS011;65489;52.048;6.090;2023-05-01T09:53:54;2.60;;;1.27;;
76599;SDS011;65489;52.048;6.090;2023-05-01T09:56:21;2.58;;;1.50;;
76599;SDS011;65489;52.048;6.090;2023-05-01T09:58:48;1.70;;;1.10;;
76599;SDS011;65489;52.048;6.090;2023-05-01T10:01:14;1.77;;;1.33;;
76599;SDS011;65489;52.048;6.090;2023-05-01T10:03:41;2.42;;;1.25;;
76599;SDS011;65489;52.048;6.090;2023-05-01T10:06:08;1.85;;;1.20;;
76599;SDS011;65489;52.048;6.090;2023-05-01T10:08:43;1.75;;;1.23;;
76599;SDS011;65489;52.048;6.090;2023-05-01T10:11:12;2.05;;;1.08;;
76599;SDS011;65489;52.048;6.090;2023-05-01T10:13:38;1.88;;;1.20;;
76599;SDS011;65489;52.048;6.090;2023-05-01T10:16:03;2.10;;;1.17;;
76599;SDS011;65489;52.048;6.090;2023-05-01T10:18:35;1.60;;;1.15;;
76599;SDS011;65489;52.048;6.090;2023-05-01T10:21:02;2.17;;;1.25;;
76599;SDS011;65489;52.048;6.090;2023-05-01T10:23:28;0.97;;;0.83;;
76599;SDS011;65489;52.048;6.090;2023-05-01T10:25:55;1.25;;;0.90;;
76599;SDS011;65489;52.048;6.090;2023-05-01T10:28:21;1.95;;;1.10;;
76599;SDS011;65489;52.048;6.090;2023-05-01T10:30:49;1.30;;;1.05;;
76599;SDS011;65489;52.048;6.090;2023-05-01T10:33:15;2.30;;;1.45;;
76599;SDS011;65489;52.048;6.090;2023-05-01T10:35:42;2.15;;;0.90;;
76599;SDS011;65489;52.048;6.090;2023-05-01T10:38:11;1.88;;;0.90;;
76599;SDS011;65489;52.048;6.090;2023-05-01T10:40:46;3.85;;;1.30;;
76599;SDS011;65489;52.048;6.090;2023-05-01T10:45:49;1.83;;;1.00;;
76599;SDS011;65489;52.048;6.090;2023-05-01T10:51:13;1.40;;;1.20;;
76599;SDS011;65489;52.048;6.090;2023-05-01T10:53:46;1.00;;;0.75;;
76599;SDS011;65489;52.048;6.090;2023-05-01T11:01:26;1.95;;;1.10;;
76599;SDS011;65489;52.048;6.090;2023-05-01T11:12:05;1.73;;;0.85;;
76599;SDS011;65489;52.048;6.090;2023-05-01T11:20:08;1.50;;;1.00;;
76599;SDS011;65489;52.048;6.090;2023-05-01T11:22:38;3.08;;;1.10;;
76599;SDS011;65489;52.048;6.090;2023-05-01T11:25:16;2.47;;;1.50;;
76599;SDS011;65489;52.048;6.090;2023-05-01T11:27:50;2.00;;;1.40;;
76599;SDS011;65489;52.048;6.090;2023-05-01T11:30:17;1.30;;;0.98;;
76599;SDS011;65489;52.048;6.090;2023-05-01T11:32:43;1.23;;;1.00;;
76599;SDS011;65489;52.048;6.090;2023-05-01T11:35:15;1.55;;;1.00;;
76599;SDS011;65489;52.048;6.090;2023-05-01T11:37:43;1.10;;;0.90;;
76599;SDS011;65489;52.048;6.090;2023-05-01T11:40:24;1.63;;;0.90;;
76599;SDS011;65489;52.048;6.090;2023-05-01T11:43:04;1.50;;;1.10;;
76599;SDS011;65489;52.048;6.090;2023-05-01T11:47:56;1.65;;;1.00;;
76599;SDS011;65489;52.048;6.090;2023-05-01T11:50:30;1.70;;;1.05;;
76599;SDS011;65489;52.048;6.090;2023-05-01T11:52:56;2.20;;;1.10;;
76599;SDS011;65489;52.048;6.090;2023-05-01T11:55:29;2.28;;;1.60;;
76599;SDS011;65489;52.048;6.090;2023-05-01T11:57:55;2.90;;;1.45;;
76599;SDS011;65489;52.048;6.090;2023-05-01T12:00:29;3.47;;;1.33;;
76599;SDS011;65489;52.048;6.090;2023-05-01T12:03:01;1.70;;;1.38;;
76599;SDS011;65489;52.048;6.090;2023-05-01T12:05:27;1.88;;;1.00;;
76599;SDS011;65489;52.048;6.090;2023-05-01T12:10:52;1.25;;;0.77;;
76599;SDS011;65489;52.048;6.090;2023-05-01T12:13:20;1.10;;;0.70;;
76599;SDS011;65489;52.048;6.090;2023-05-01T12:15:46;1.58;;;1.00;;
76599;SDS011;65489;52.048;6.090;2023-05-01T12:18:13;1.75;;;0.90;;
76599;SDS011;65489;52.048;6.090;2023-05-01T12:20:57;0.90;;;0.70;;
76599;SDS011;65489;52.048;6.090;2023-05-01T12:23:30;2.85;;;0.90;;
76599;SDS011;65489;52.048;6.090;2023-05-01T12:25:57;1.50;;;0.90;;
76599;SDS011;65489;52.048;6.090;2023-05-01T12:28:22;1.10;;;0.93;;
76599;SDS011;65489;52.048;6.090;2023-05-01T12:30:48;1.88;;;0.90;;
76599;SDS011;65489;52.048;6.090;2023-05-01T12:33:18;1.15;;;0.82;;
76599;SDS011;65489;52.048;6.090;2023-05-01T12:35:45;1.20;;;0.80;;
76599;SDS011;65489;52.048;6.090;2023-05-01T12:38:18;1.20;;;0.88;;
76599;SDS011;65489;52.048;6.090;2023-05-01T12:43:21;1.25;;;0.80;;
76599;SDS011;65489;52.048;6.090;2023-05-01T12:45:57;2.67;;;0.90;;
76599;SDS011;65489;52.048;6.090;2023-05-01T12:48:23;0.93;;;0.68;;
76599;SDS011;65489;52.048;6.090;2023-05-01T12:50:49;1.67;;;0.85;;
76599;SDS011;65489;52.048;6.090;2023-05-01T12:53:18;2.25;;;0.70;;
76599;SDS011;65489;52.048;6.090;2023-05-01T12:55:46;3.35;;;1.02;;
76599;SDS011;65489;52.048;6.090;2023-05-01T12:58:12;1.92;;;0.70;;
76599;SDS011;65489;52.048;6.090;2023-05-01T13:00:42;1.98;;;0.63;;
76599;SDS011;65489;52.048;6.090;2023-05-01T13:03:13;1.55;;;0.80;;
76599;SDS011;65489;52.048;6.090;2023-05-01T13:05:52;2.17;;;0.85;;
76599;SDS011;65489;52.048;6.090;2023-05-01T13:08:25;2.00;;;0.73;;
76599;SDS011;65489;52.048;6.090;2023-05-01T13:10:59;0.77;;;0.68;;
76599;SDS011;65489;52.048;6.090;2023-05-01T13:13:29;1.10;;;0.68;;
76599;SDS011;65489;52.048;6.090;2023-05-01T13:16:02;1.10;;;0.70;;
76599;SDS011;65489;52.048;6.090;2023-05-01T13:18:29;1.92;;;0.63;;
76599;SDS011;65489;52.048;6.090;2023-05-01T13:20:55;0.90;;;0.77;;
76599;SDS011;65489;52.048;6.090;2023-05-01T13:23:20;0.68;;;0.55;;
76599;SDS011;65489;52.048;6.090;2023-05-01T13:25:46;1.02;;;0.55;;
76599;SDS011;65489;52.048;6.090;2023-05-01T13:28:19;0.80;;;0.60;;
76599;SDS011;65489;52.048;6.090;2023-05-01T13:30:45;0.85;;;0.65;;
76599;SDS011;65489;52.048;6.090;2023-05-01T13:33:10;0.90;;;0.50;;
76599;SDS011;65489;52.048;6.090;2023-05-01T13:35:37;1.15;;;0.73;;
76599;SDS011;65489;52.048;6.090;2023-05-01T13:38:04;1.27;;;0.60;;
76599;SDS011;65489;52.048;6.090;2023-05-01T13:40:33;1.00;;;0.65;;
76599;SDS011;65489;52.048;6.090;2023-05-01T13:42:58;0.70;;;0.50;;
76599;SDS011;65489;52.048;6.090;2023-05-01T13:45:24;1.30;;;0.60;;
76599;SDS011;65489;52.048;6.090;2023-05-01T13:47:50;1.15;;;0.82;;
76599;SDS011;65489;52.048;6.090;2023-05-01T13:50:15;2.15;;;0.70;;
76599;SDS011;65489;52.048;6.090;2023-05-01T13:52:42;1.55;;;0.70;;
76599;SDS011;65489;52.048;6.090;2023-05-01T13:55:08;1.42;;;0.80;;
76599;SDS011;65489;52.048;6.090;2023-05-01T13:57:38;1.90;;;0.80;;
76599;SDS011;65489;52.048;6.090;2023-05-01T14:00:07;1.08;;;0.60;;
76599;SDS011;65489;52.048;6.090;2023-05-01T14:02:44;0.98;;;0.55;;
76599;SDS011;65489;52.048;6.090;2023-05-01T14:05:11;1.02;;;0.68;;
76599;SDS011;65489;52.048;6.090;2023-05-01T14:07:43;1.42;;;0.70;;
76599;SDS011;65489;52.048;6.090;2023-05-01T14:10:10;1.02;;;0.80;;
76599;SDS011;65489;52.048;6.090;2023-05-01T14:12:36;1.30;;;0.80;;
76599;SDS011;65489;52.048;6.090;2023-05-01T14:15:03;1.35;;;0.90;;
76599;SDS011;65489;52.048;6.090;2023-05-01T14:17:29;2.15;;;1.00;;
76599;SDS011;65489;52.048;6.090;2023-05-01T14:19:56;1.98;;;0.80;;
76599;SDS011;65489;52.048;6.090;2023-05-01T14:22:21;1.00;;;0.55;;
76599;SDS011;65489;52.048;6.090;2023-05-01T14:24:47;1.38;;;0.60;;
76599;SDS011;65489;52.048;6.090;2023-05-01T14:27:13;1.10;;;0.63;;
76599;SDS011;65489;52.048;6.090;2023-05-01T14:29:40;1.17;;;0.80;;
76599;SDS011;65489;52.048;6.090;2023-05-01T14:32:07;2.67;;;0.70;;
76599;SDS011;65489;52.048;6.090;2023-05-01T14:34:33;0.85;;;0.60;;
76599;SDS011;65489;52.048;6.090;2023-05-01T14:36:58;1.10;;;0.80;;
76599;SDS011;65489;52.048;6.090;2023-05-01T14:39:24;1.98;;;0.70;;
76599;SDS011;65489;52.048;6.090;2023-05-01T14:41:50;1.25;;;0.93;;
76599;SDS011;65489;52.048;6.090;2023-05-01T14:44:17;1.17;;;0.82;;
76599;SDS011;65489;52.048;6.090;2023-05-01T14:46:44;0.98;;;0.60;;
76599;SDS011;65489;52.048;6.090;2023-05-01T14:49:20;1.95;;;0.80;;
76599;SDS011;65489;52.048;6.090;2023-05-01T14:51:48;1.33;;;0.73;;
76599;SDS011;65489;52.048;6.090;2023-05-01T14:54:14;1.25;;;0.80;;
76599;SDS011;65489;52.048;6.090;2023-05-01T14:56:43;1.33;;;0.70;;
76599;SDS011;65489;52.048;6.090;2023-05-01T14:59:10;1.10;;;0.63;;
76599;SDS011;65489;52.048;6.090;2023-05-01T15:01:36;1.00;;;0.65;;
76599;SDS011;65489;52.048;6.090;2023-05-01T15:04:02;1.20;;;0.60;;
76599;SDS011;65489;52.048;6.090;2023-05-01T15:06:27;0.77;;;0.60;;
76599;SDS011;65489;52.048;6.090;2023-05-01T15:08:53;0.80;;;0.50;;
76599;SDS011;65489;52.048;6.090;2023-05-01T15:11:18;1.55;;;0.60;;
76599;SDS011;65489;52.048;6.090;2023-05-01T15:13:46;1.53;;;0.80;;
76599;SDS011;65489;52.048;6.090;2023-05-01T15:16:14;1.40;;;0.80;;
76599;SDS011;65489;52.048;6.090;2023-05-01T15:18:39;0.80;;;0.73;;
76599;SDS011;65489;52.048;6.090;2023-05-01T15:21:05;1.60;;;0.70;;
76599;SDS011;65489;52.048;6.090;2023-05-01T15:23:31;1.67;;;0.68;;
76599;SDS011;65489;52.048;6.090;2023-05-01T15:25:56;1.15;;;0.50;;
76599;SDS011;65489;52.048;6.090;2023-05-01T15:28:22;1.60;;;0.57;;
76599;SDS011;65489;52.048;6.090;2023-05-01T15:30:50;0.98;;;0.70;;
76599;SDS011;65489;52.048;6.090;2023-05-01T15:33:16;1.85;;;0.80;;
76599;SDS011;65489;52.048;6.090;2023-05-01T15:35:41;1.30;;;0.73;;
76599;SDS011;65489;52.048;6.090;2023-05-01T15:38:07;1.25;;;0.50;;
76599;SDS011;65489;52.048;6.090;2023-05-01T15:40:32;2.55;;;0.70;;
76599;SDS011;65489;52.048;6.090;2023-05-01T15:42:59;3.00;;;0.95;;
76599;SDS011;65489;52.048;6.090;2023-05-01T15:45:25;2.55;;;0.80;;
76599;SDS011;65489;52.048;6.090;2023-05-01T15:47:51;0.95;;;0.70;;